Flight Number: EUR1561 Duration: 6:00
Departure: Jeddah King Abdul Aziz (OEJN) at 00:00 Distance: 2544 Nm
Arrival: Gatwick Airport (EGKK) at 06:00 Equipment: B777

Weather Information
Jeddah King Abdul Aziz International Airport , Saudi Arabia (OEJN) 21-42N 039-11E 17M May 23, 2018 - 08:00 PM EDT / 2018.05.24 0000 UTC
Wind: from the NNE (020 degrees) at 2 MPH (2 KT):0
Visibility: greater than 7 mile(s):0 Temperature: 87 F (31 C) Dew Point: 59 F (15 C) Relative Humidity: 37% Pressure (altimeter): 29.62 in. Hg (1003 hPa)
ob: OEJN 240000Z 02002KT CAVOK 31/15 Q1003 NOSIG cycle: 0
Sunrise: 02:44 Sunset: 15:56 (UTC)

London / Gatwick Airport, United Kingdom (EGKK) 51-09N 000-11W 0M May 23, 2018 - 07:50 PM EDT / 2018.05.23 2350 UTC
Wind: from the NNE (020 degrees) at 8 MPH (7 KT):0
Visibility: greater than 7 mile(s):0
Sky conditions: mostly clear Weather: light rain Temperature: 55 F (13 C) Dew Point: 50 F (10 C) Relative Humidity: 81% Pressure (altimeter): 30.15 in. Hg (1021 hPa)
ob: EGKK 232350Z 02007KT 9999 -RA FEW026 13/10 Q1021 cycle: 0
Sunrise: 04:02 Sunset: 19:52 (UTC)

TAF:2018/05/23 18:15 TAF EGKK 231705Z 2318/2424 02010KT 9999 SCT030 PROB30 TEMPO 2318/2321 7000 SHRA TEMPO 2321/2418 6000 SHRA PROB30 TEMPO 2323/2406 4000 +SHRA PROB40 TEMPO 2410/2418 04015G25KT 4000 +SHRA BECMG 2418/2421 VRB03KT

Previous Pireps for this route
Date Aircraft Flight time Fuel used Landing rate On time
2015-04-03B757-20007.2210Charter
2016-01-26B7775.32155672-391Yes
2016-05-15B7776.091367440Charter
(pireps marked green are flown by you)

Route map